BOX6717 EGNX-EDDF
Flight info
| Callsign | BOX6717 |
|---|---|
| Flight time | 1h 7m |
| Altitude | 35000 |
| Route | SAPCO1N SAPCO UY53 DTY P166 BANTO P155 SIVDA P137 REDFA DCT TACHA DCT NOLRU DCT DIXAT DIXAT1A |
| Aircraft | B77L/H-SDE1E2E3FGHIJ2J3J4J5M1RWXY/LB1D1 |
Departure
| Time | 2026-04-16 12:11 |
|---|---|
| Airport | East Midlands Airport (EGNX) |
Arrival
| Time | 2026-04-16 13:19 |
|---|---|
| Airport | Frankfurt Main Airport (EDDF) |
| Time | Latitude | Longitude | Altitude | Speed | Heading |
|---|---|---|---|---|---|
| 2026-04-16 11:38 | 52.82708 | -1.34589 | 305 ft | 0 kts | 266° |
| 2026-04-16 12:00 | 52.82709 | -1.34581 | 306 ft | 4 kts | 267° |
| 2026-04-16 12:00 | 52.82708 | -1.34537 | 306 ft | 3 kts | 269° |
| 2026-04-16 12:01 | 52.82705 | -1.34498 | 306 ft | 4 kts | 315° |
| 2026-04-16 12:01 | 52.82683 | -1.34484 | 306 ft | 4 kts | 358° |
| 2026-04-16 12:01 | 52.82662 | -1.34482 | 305 ft | 4 kts | 358° |
| 2026-04-16 12:02 | 52.82655 | -1.34482 | 305 ft | 1 kts | 358° |
| 2026-04-16 12:06 | 52.82715 | -1.34485 | 308 ft | 15 kts | 358° |
| 2026-04-16 12:06 | 52.82805 | -1.34483 | 308 ft | 10 kts | 19° |
| 2026-04-16 12:06 | 52.82861 | -1.34425 | 310 ft | 10 kts | 17° |
| 2026-04-16 12:07 | 52.82903 | -1.34348 | 311 ft | 11 kts | 79° |
| 2026-04-16 12:07 | 52.82907 | -1.34149 | 308 ft | 24 kts | 89° |
| 2026-04-16 12:07 | 52.82912 | -1.33845 | 309 ft | 27 kts | 88° |
| 2026-04-16 12:07 | 52.82918 | -1.33530 | 311 ft | 27 kts | 89° |
| 2026-04-16 12:08 | 52.82923 | -1.33222 | 308 ft | 28 kts | 88° |
| 2026-04-16 12:08 | 52.82929 | -1.32905 | 307 ft | 28 kts | 88° |
| 2026-04-16 12:08 | 52.82935 | -1.32587 | 307 ft | 28 kts | 88° |
| 2026-04-16 12:08 | 52.82941 | -1.32271 | 305 ft | 28 kts | 88° |
| 2026-04-16 12:09 | 52.82946 | -1.31954 | 308 ft | 28 kts | 89° |
| 2026-04-16 12:09 | 52.82951 | -1.31637 | 306 ft | 28 kts | 88° |
| 2026-04-16 12:09 | 52.82957 | -1.31401 | 305 ft | 12 kts | 84° |
| 2026-04-16 12:09 | 52.83011 | -1.31319 | 306 ft | 10 kts | 4° |
| 2026-04-16 12:10 | 52.83079 | -1.31317 | 309 ft | 10 kts | 359° |
| 2026-04-16 12:10 | 52.83123 | -1.31342 | 310 ft | 5 kts | 288° |
| 2026-04-16 12:10 | 52.83124 | -1.31498 | 312 ft | 33 kts | 269° |
| 2026-04-16 12:10 | 52.83109 | -1.32305 | 307 ft | 107 kts | 268° |
| 2026-04-16 12:11 | 52.83077 | -1.33875 | 312 ft | 164 kts | 268° |
| 2026-04-16 12:11 | 52.83028 | -1.35821 | 768 ft | 169 kts | 265° |
| 2026-04-16 12:11 | 52.82938 | -1.37755 | 1476 ft | 166 kts | 258° |
| 2026-04-16 12:11 | 52.82449 | -1.39460 | 2075 ft | 173 kts | 225° |
| 2026-04-16 12:12 | 52.81516 | -1.40758 | 2557 ft | 182 kts | 221° |
| 2026-04-16 12:12 | 52.80517 | -1.42225 | 2831 ft | 207 kts | 224° |
| 2026-04-16 12:12 | 52.79405 | -1.43953 | 3143 ft | 232 kts | 224° |
| 2026-04-16 12:12 | 52.78215 | -1.45834 | 3915 ft | 237 kts | 225° |
| 2026-04-16 12:13 | 52.76982 | -1.47702 | 4649 ft | 243 kts | 217° |
| 2026-04-16 12:13 | 52.75361 | -1.48746 | 5304 ft | 257 kts | 185° |
| 2026-04-16 12:13 | 52.73588 | -1.48359 | 6138 ft | 262 kts | 167° |
| 2026-04-16 12:13 | 52.71848 | -1.47295 | 6899 ft | 268 kts | 160° |
| 2026-04-16 12:14 | 52.70116 | -1.46050 | 7676 ft | 275 kts | 160° |
| 2026-04-16 12:14 | 52.68331 | -1.44788 | 8405 ft | 280 kts | 161° |
| 2026-04-16 12:14 | 52.66525 | -1.43588 | 9002 ft | 280 kts | 162° |
| 2026-04-16 12:14 | 52.64695 | -1.42412 | 9113 ft | 286 kts | 163° |
| 2026-04-16 12:15 | 52.62832 | -1.41252 | 9145 ft | 286 kts | 163° |
| 2026-04-16 12:15 | 52.60966 | -1.40089 | 9708 ft | 286 kts | 163° |
| 2026-04-16 12:15 | 52.59097 | -1.38914 | 10489 ft | 287 kts | 163° |
| 2026-04-16 12:15 | 52.57236 | -1.37744 | 11160 ft | 296 kts | 163° |
| 2026-04-16 12:16 | 52.55223 | -1.36484 | 11412 ft | 323 kts | 163° |
| 2026-04-16 12:16 | 52.53040 | -1.35104 | 11635 ft | 351 kts | 162° |
| 2026-04-16 12:16 | 52.50719 | -1.33545 | 12181 ft | 367 kts | 161° |
| 2026-04-16 12:16 | 52.48337 | -1.31910 | 12996 ft | 375 kts | 161° |
| 2026-04-16 12:17 | 52.45911 | -1.30243 | 13882 ft | 380 kts | 161° |
| 2026-04-16 12:17 | 52.43451 | -1.28564 | 14747 ft | 386 kts | 161° |
| 2026-04-16 12:17 | 52.40957 | -1.26865 | 15130 ft | 391 kts | 162° |
| 2026-04-16 12:17 | 52.38430 | -1.25151 | 15109 ft | 393 kts | 162° |
| 2026-04-16 12:18 | 52.35980 | -1.23226 | 15229 ft | 395 kts | 149° |
| 2026-04-16 12:18 | 52.34029 | -1.19920 | 15892 ft | 414 kts | 126° |
| 2026-04-16 12:18 | 52.32735 | -1.15660 | 16780 ft | 422 kts | 112° |
| 2026-04-16 12:18 | 52.32107 | -1.10935 | 17553 ft | 428 kts | 97° |
| 2026-04-16 12:19 | 52.31867 | -1.06031 | 18153 ft | 438 kts | 95° |
| 2026-04-16 12:19 | 52.31689 | -1.01077 | 18574 ft | 445 kts | 94° |
| 2026-04-16 12:19 | 52.31524 | -0.96020 | 18813 ft | 445 kts | 94° |
| 2026-04-16 12:19 | 52.31352 | -0.90962 | 19055 ft | 445 kts | 95° |
| 2026-04-16 12:20 | 52.31164 | -0.85886 | 19673 ft | 450 kts | 95° |
| 2026-04-16 12:20 | 52.30957 | -0.80757 | 20400 ft | 454 kts | 95° |
| 2026-04-16 12:20 | 52.30735 | -0.75577 | 21051 ft | 460 kts | 95° |
| 2026-04-16 12:20 | 52.30500 | -0.70338 | 21685 ft | 465 kts | 96° |
| 2026-04-16 12:21 | 52.30257 | -0.65055 | 22324 ft | 470 kts | 96° |
| 2026-04-16 12:21 | 52.30006 | -0.59681 | 22956 ft | 475 kts | 96° |
| 2026-04-16 12:21 | 52.29751 | -0.54279 | 23575 ft | 479 kts | 96° |
| 2026-04-16 12:21 | 52.29490 | -0.48811 | 24149 ft | 485 kts | 96° |
| 2026-04-16 12:22 | 52.29224 | -0.43286 | 24698 ft | 490 kts | 96° |
| 2026-04-16 12:22 | 52.28954 | -0.37700 | 25206 ft | 496 kts | 96° |
| 2026-04-16 12:22 | 52.28682 | -0.32121 | 25726 ft | 501 kts | 96° |
| 2026-04-16 12:22 | 52.28400 | -0.26412 | 26222 ft | 506 kts | 96° |
| 2026-04-16 12:23 | 52.28113 | -0.20653 | 26731 ft | 511 kts | 96° |
| 2026-04-16 12:23 | 52.27821 | -0.14843 | 27247 ft | 515 kts | 96° |
| 2026-04-16 12:23 | 52.27523 | -0.09002 | 27705 ft | 520 kts | 96° |
| 2026-04-16 12:23 | 52.27220 | -0.03089 | 28133 ft | 525 kts | 96° |
| 2026-04-16 12:24 | 52.26911 | 0.02888 | 28568 ft | 530 kts | 96° |
| 2026-04-16 12:24 | 52.26596 | 0.08903 | 29088 ft | 532 kts | 95° |
| 2026-04-16 12:24 | 52.26279 | 0.14928 | 29553 ft | 535 kts | 95° |
| 2026-04-16 12:24 | 52.25954 | 0.21017 | 29888 ft | 541 kts | 95° |
| 2026-04-16 12:25 | 52.25623 | 0.27162 | 30269 ft | 544 kts | 95° |
| 2026-04-16 12:25 | 52.25288 | 0.33316 | 30754 ft | 545 kts | 95° |
| 2026-04-16 12:25 | 52.24949 | 0.39481 | 31231 ft | 546 kts | 95° |
| 2026-04-16 12:25 | 52.24611 | 0.45570 | 31663 ft | 547 kts | 95° |
| 2026-04-16 12:26 | 52.24263 | 0.51762 | 32088 ft | 549 kts | 95° |
| 2026-04-16 12:26 | 52.23913 | 0.57971 | 32512 ft | 550 kts | 95° |
| 2026-04-16 12:26 | 52.23560 | 0.64182 | 32914 ft | 551 kts | 95° |
| 2026-04-16 12:26 | 52.23200 | 0.70413 | 33319 ft | 551 kts | 95° |
| 2026-04-16 12:27 | 52.22836 | 0.76633 | 33730 ft | 552 kts | 95° |
| 2026-04-16 12:27 | 52.22469 | 0.82870 | 34162 ft | 551 kts | 95° |
| 2026-04-16 12:27 | 52.22101 | 0.89092 | 34593 ft | 550 kts | 95° |
| 2026-04-16 12:27 | 52.21730 | 0.95277 | 35125 ft | 546 kts | 95° |
| 2026-04-16 12:28 | 52.20985 | 1.07609 | 35161 ft | 544 kts | 95° |
| 2026-04-16 12:28 | 52.20234 | 1.19825 | 35149 ft | 539 kts | 95° |
| 2026-04-16 12:29 | 52.19477 | 1.31916 | 35167 ft | 539 kts | 95° |
| 2026-04-16 12:29 | 52.18696 | 1.44150 | 35157 ft | 539 kts | 96° |
| 2026-04-16 12:30 | 52.17913 | 1.56223 | 35156 ft | 539 kts | 96° |
| 2026-04-16 12:30 | 52.17114 | 1.68371 | 35158 ft | 539 kts | 95° |
| 2026-04-16 12:31 | 52.16304 | 1.80494 | 35157 ft | 538 kts | 96° |
| 2026-04-16 12:31 | 52.15481 | 1.92607 | 35157 ft | 538 kts | 96° |
| 2026-04-16 12:32 | 52.14647 | 2.04707 | 35158 ft | 537 kts | 96° |
| 2026-04-16 12:32 | 52.13800 | 2.16793 | 35162 ft | 537 kts | 96° |
| 2026-04-16 12:33 | 52.12944 | 2.28869 | 35173 ft | 537 kts | 96° |
| 2026-04-16 12:33 | 52.12130 | 2.40942 | 35179 ft | 536 kts | 92° |
| 2026-04-16 12:34 | 52.12541 | 2.52986 | 35194 ft | 532 kts | 78° |
| 2026-04-16 12:34 | 52.14329 | 2.64524 | 35198 ft | 527 kts | 69° |
| 2026-04-16 12:35 | 52.16581 | 2.75881 | 35201 ft | 527 kts | 69° |
| 2026-04-16 12:35 | 52.18777 | 2.87291 | 35194 ft | 527 kts | 70° |
| 2026-04-16 12:36 | 52.20911 | 2.98735 | 35196 ft | 527 kts | 70° |
| 2026-04-16 12:36 | 52.23034 | 3.10168 | 35204 ft | 527 kts | 70° |
| 2026-04-16 12:37 | 52.24549 | 3.21839 | 35186 ft | 530 kts | 88° |
| 2026-04-16 12:37 | 52.23514 | 3.33694 | 35192 ft | 529 kts | 111° |
| 2026-04-16 12:38 | 52.20802 | 3.44734 | 35191 ft | 527 kts | 114° |
| 2026-04-16 12:38 | 52.18022 | 3.55819 | 35198 ft | 529 kts | 114° |
| 2026-04-16 12:39 | 52.15286 | 3.66984 | 35207 ft | 530 kts | 113° |
| 2026-04-16 12:39 | 52.12596 | 3.78094 | 35202 ft | 531 kts | 113° |
| 2026-04-16 12:40 | 52.09875 | 3.89281 | 35202 ft | 531 kts | 113° |
| 2026-04-16 12:40 | 52.07137 | 4.00462 | 35213 ft | 531 kts | 113° |
| 2026-04-16 12:41 | 52.04392 | 4.11614 | 35211 ft | 531 kts | 114° |
| 2026-04-16 12:41 | 52.01637 | 4.22744 | 35211 ft | 530 kts | 114° |
| 2026-04-16 12:42 | 51.98896 | 4.33765 | 35213 ft | 530 kts | 114° |
| 2026-04-16 12:42 | 51.96123 | 4.44857 | 35211 ft | 529 kts | 114° |
| 2026-04-16 12:43 | 51.93345 | 4.55907 | 35212 ft | 529 kts | 114° |
| 2026-04-16 12:43 | 51.91032 | 4.65075 | 35212 ft | 529 kts | 114° |
| 2026-04-16 12:44 | 51.88242 | 4.76082 | 35214 ft | 528 kts | 114° |
| 2026-04-16 12:44 | 51.85437 | 4.87080 | 35210 ft | 528 kts | 114° |
| 2026-04-16 12:45 | 51.82634 | 4.98031 | 35213 ft | 527 kts | 114° |
| 2026-04-16 12:45 | 51.79818 | 5.08978 | 35214 ft | 527 kts | 114° |
| 2026-04-16 12:46 | 51.76994 | 5.19902 | 35210 ft | 527 kts | 114° |
| 2026-04-16 12:46 | 51.74163 | 5.30801 | 35215 ft | 526 kts | 114° |
| 2026-04-16 12:47 | 51.71323 | 5.41684 | 35211 ft | 526 kts | 115° |
| 2026-04-16 12:47 | 51.68478 | 5.52524 | 35214 ft | 525 kts | 115° |
| 2026-04-16 12:48 | 51.65624 | 5.63353 | 35210 ft | 524 kts | 115° |
| 2026-04-16 12:48 | 51.62764 | 5.74159 | 35210 ft | 524 kts | 115° |
| 2026-04-16 12:49 | 51.59895 | 5.84945 | 35212 ft | 523 kts | 115° |
| 2026-04-16 12:49 | 51.57024 | 5.95685 | 35212 ft | 523 kts | 115° |
| 2026-04-16 12:50 | 51.54164 | 6.06335 | 35213 ft | 522 kts | 115° |
| 2026-04-16 12:50 | 51.51278 | 6.17047 | 35216 ft | 522 kts | 115° |
| 2026-04-16 12:51 | 51.48443 | 6.27790 | 35212 ft | 523 kts | 113° |
| 2026-04-16 12:51 | 51.45806 | 6.38694 | 35217 ft | 524 kts | 112° |
| 2026-04-16 12:52 | 51.43185 | 6.49572 | 35223 ft | 523 kts | 113° |
| 2026-04-16 12:52 | 51.40515 | 6.60430 | 35227 ft | 523 kts | 113° |
| 2026-04-16 12:53 | 51.37824 | 6.71253 | 35236 ft | 523 kts | 113° |
| 2026-04-16 12:53 | 51.35142 | 6.81994 | 34984 ft | 527 kts | 113° |
| 2026-04-16 12:54 | 51.33762 | 6.87498 | 34128 ft | 535 kts | 113° |
| 2026-04-16 12:54 | 51.32377 | 6.93014 | 33344 ft | 536 kts | 113° |
| 2026-04-16 12:54 | 51.30983 | 6.98558 | 32510 ft | 537 kts | 113° |
| 2026-04-16 12:54 | 51.29587 | 7.04096 | 31633 ft | 538 kts | 113° |
| 2026-04-16 12:55 | 51.28120 | 7.09587 | 30707 ft | 533 kts | 120° |
| 2026-04-16 12:55 | 51.26012 | 7.14396 | 29775 ft | 527 kts | 137° |
| 2026-04-16 12:55 | 51.23251 | 7.18140 | 28822 ft | 518 kts | 153° |
| 2026-04-16 12:55 | 51.20080 | 7.20613 | 28215 ft | 499 kts | 162° |
| 2026-04-16 12:56 | 51.16923 | 7.22843 | 27600 ft | 495 kts | 159° |
| 2026-04-16 12:56 | 51.13838 | 7.25249 | 26981 ft | 492 kts | 158° |
| 2026-04-16 12:56 | 51.10801 | 7.27699 | 26366 ft | 487 kts | 157° |
| 2026-04-16 12:56 | 51.07807 | 7.30190 | 25763 ft | 483 kts | 156° |
| 2026-04-16 12:57 | 51.04847 | 7.32656 | 25163 ft | 479 kts | 156° |
| 2026-04-16 12:57 | 51.01942 | 7.35062 | 24583 ft | 474 kts | 156° |
| 2026-04-16 12:57 | 50.99028 | 7.37463 | 24011 ft | 469 kts | 156° |
| 2026-04-16 12:57 | 50.96145 | 7.39830 | 23447 ft | 465 kts | 156° |
| 2026-04-16 12:58 | 50.93285 | 7.42176 | 22868 ft | 460 kts | 156° |
| 2026-04-16 12:58 | 50.90450 | 7.44499 | 22308 ft | 456 kts | 156° |
| 2026-04-16 12:58 | 50.87643 | 7.46798 | 21749 ft | 452 kts | 156° |
| 2026-04-16 12:58 | 50.84864 | 7.49070 | 21198 ft | 447 kts | 156° |
| 2026-04-16 12:59 | 50.82111 | 7.51318 | 20643 ft | 443 kts | 156° |
| 2026-04-16 12:59 | 50.79382 | 7.53543 | 20105 ft | 440 kts | 156° |
| 2026-04-16 12:59 | 50.76668 | 7.55752 | 19573 ft | 436 kts | 156° |
| 2026-04-16 13:00 | 50.71326 | 7.60094 | 18514 ft | 428 kts | 156° |
| 2026-04-16 13:00 | 50.68678 | 7.62242 | 17980 ft | 425 kts | 156° |
| 2026-04-16 13:00 | 50.66093 | 7.64336 | 17471 ft | 421 kts | 156° |
| 2026-04-16 13:00 | 50.63466 | 7.66463 | 16937 ft | 418 kts | 156° |
| 2026-04-16 13:01 | 50.60892 | 7.68543 | 16433 ft | 415 kts | 155° |
| 2026-04-16 13:01 | 50.58337 | 7.70604 | 15940 ft | 411 kts | 155° |
| 2026-04-16 13:01 | 50.55803 | 7.72645 | 15472 ft | 407 kts | 155° |
| 2026-04-16 13:01 | 50.53293 | 7.74663 | 15005 ft | 403 kts | 155° |
| 2026-04-16 13:02 | 50.50844 | 7.76631 | 14558 ft | 399 kts | 155° |
| 2026-04-16 13:02 | 50.48380 | 7.78612 | 14106 ft | 396 kts | 155° |
| 2026-04-16 13:02 | 50.45930 | 7.80577 | 13651 ft | 393 kts | 155° |
| 2026-04-16 13:02 | 50.43503 | 7.82539 | 13216 ft | 390 kts | 153° |
| 2026-04-16 13:03 | 50.41256 | 7.84880 | 12838 ft | 386 kts | 144° |
| 2026-04-16 13:03 | 50.39168 | 7.87534 | 12498 ft | 383 kts | 141° |
| 2026-04-16 13:03 | 50.37145 | 7.90209 | 12127 ft | 377 kts | 141° |
| 2026-04-16 13:03 | 50.35151 | 7.92806 | 11755 ft | 370 kts | 142° |
| 2026-04-16 13:04 | 50.33169 | 7.95324 | 11397 ft | 363 kts | 143° |
| 2026-04-16 13:04 | 50.31236 | 7.97736 | 11057 ft | 356 kts | 143° |
| 2026-04-16 13:04 | 50.29283 | 8.00148 | 10710 ft | 350 kts | 143° |
| 2026-04-16 13:04 | 50.27417 | 8.02449 | 10384 ft | 343 kts | 143° |
| 2026-04-16 13:05 | 50.25659 | 8.04869 | 10183 ft | 328 kts | 133° |
| 2026-04-16 13:05 | 50.24252 | 8.07556 | 10180 ft | 312 kts | 128° |
| 2026-04-16 13:05 | 50.22997 | 8.10228 | 10102 ft | 299 kts | 127° |
| 2026-04-16 13:05 | 50.21793 | 8.12807 | 9920 ft | 289 kts | 127° |
| 2026-04-16 13:06 | 50.20602 | 8.15313 | 9723 ft | 289 kts | 128° |
| 2026-04-16 13:06 | 50.19399 | 8.17808 | 9555 ft | 285 kts | 128° |
| 2026-04-16 13:06 | 50.18214 | 8.20240 | 9455 ft | 279 kts | 128° |
| 2026-04-16 13:06 | 50.17021 | 8.22671 | 9356 ft | 275 kts | 128° |
| 2026-04-16 13:07 | 50.15848 | 8.25050 | 9286 ft | 279 kts | 128° |
| 2026-04-16 13:07 | 50.14653 | 8.27465 | 9207 ft | 283 kts | 129° |
| 2026-04-16 13:07 | 50.13450 | 8.29893 | 9122 ft | 282 kts | 128° |
| 2026-04-16 13:07 | 50.12251 | 8.32306 | 9038 ft | 281 kts | 128° |
| 2026-04-16 13:08 | 50.11059 | 8.34714 | 8945 ft | 279 kts | 127° |
| 2026-04-16 13:08 | 50.10243 | 8.37401 | 8837 ft | 276 kts | 98° |
| 2026-04-16 13:08 | 50.10344 | 8.40349 | 8797 ft | 276 kts | 74° |
| 2026-04-16 13:08 | 50.10984 | 8.43194 | 8726 ft | 280 kts | 69° |
| 2026-04-16 13:09 | 50.11681 | 8.46051 | 8632 ft | 283 kts | 69° |
| 2026-04-16 13:09 | 50.12379 | 8.48909 | 8545 ft | 282 kts | 69° |
| 2026-04-16 13:09 | 50.13072 | 8.51756 | 8420 ft | 280 kts | 69° |
| 2026-04-16 13:09 | 50.13755 | 8.54580 | 8140 ft | 277 kts | 69° |
| 2026-04-16 13:10 | 50.14431 | 8.57394 | 7756 ft | 276 kts | 69° |
| 2026-04-16 13:10 | 50.15091 | 8.60152 | 7396 ft | 274 kts | 69° |
| 2026-04-16 13:10 | 50.15750 | 8.62918 | 7031 ft | 272 kts | 69° |
| 2026-04-16 13:10 | 50.16407 | 8.65679 | 6659 ft | 271 kts | 69° |
| 2026-04-16 13:11 | 50.17060 | 8.68423 | 6282 ft | 269 kts | 69° |
| 2026-04-16 13:11 | 50.17703 | 8.71135 | 6023 ft | 266 kts | 69° |
| 2026-04-16 13:11 | 50.18346 | 8.73848 | 5776 ft | 267 kts | 69° |
| 2026-04-16 13:11 | 50.18991 | 8.76571 | 5530 ft | 267 kts | 69° |
| 2026-04-16 13:12 | 50.19636 | 8.79295 | 5278 ft | 268 kts | 70° |
| 2026-04-16 13:12 | 50.20276 | 8.82015 | 5029 ft | 267 kts | 70° |
| 2026-04-16 13:12 | 50.20633 | 8.84805 | 4744 ft | 261 kts | 95° |
| 2026-04-16 13:12 | 50.20086 | 8.87452 | 4499 ft | 257 kts | 126° |
| 2026-04-16 13:13 | 50.18801 | 8.89329 | 4238 ft | 252 kts | 154° |
| 2026-04-16 13:13 | 50.17171 | 8.90034 | 4085 ft | 238 kts | 179° |
| 2026-04-16 13:13 | 50.15564 | 8.89742 | 4019 ft | 230 kts | 200° |
| 2026-04-16 13:13 | 50.14099 | 8.88773 | 4028 ft | 229 kts | 206° |
| 2026-04-16 13:14 | 50.12699 | 8.87729 | 3992 ft | 220 kts | 207° |
| 2026-04-16 13:14 | 50.11354 | 8.86674 | 3969 ft | 209 kts | 217° |
| 2026-04-16 13:14 | 50.10421 | 8.84936 | 3875 ft | 216 kts | 243° |
| 2026-04-16 13:14 | 50.09800 | 8.82835 | 3596 ft | 216 kts | 247° |
| 2026-04-16 13:15 | 50.09251 | 8.80688 | 3303 ft | 211 kts | 249° |
| 2026-04-16 13:15 | 50.08746 | 8.78573 | 3059 ft | 204 kts | 250° |
| 2026-04-16 13:15 | 50.08266 | 8.76544 | 2854 ft | 197 kts | 249° |
| 2026-04-16 13:15 | 50.07801 | 8.74539 | 2483 ft | 197 kts | 252° |
| 2026-04-16 13:16 | 50.07521 | 8.72492 | 2281 ft | 190 kts | 259° |
| 2026-04-16 13:16 | 50.07263 | 8.70454 | 2129 ft | 191 kts | 254° |
| 2026-04-16 13:16 | 50.06808 | 8.68480 | 1672 ft | 193 kts | 248° |
| 2026-04-16 13:16 | 50.06362 | 8.66619 | 1487 ft | 174 kts | 250° |
| 2026-04-16 13:17 | 50.05951 | 8.64889 | 1140 ft | 168 kts | 249° |
| 2026-04-16 13:17 | 50.05568 | 8.63283 | 954 ft | 152 kts | 252° |
| 2026-04-16 13:17 | 50.05221 | 8.61719 | 833 ft | 156 kts | 252° |
| 2026-04-16 13:17 | 50.04833 | 8.60082 | 637 ft | 164 kts | 250° |
| 2026-04-16 13:18 | 50.04449 | 8.58443 | 395 ft | 157 kts | 250° |
| 2026-04-16 13:18 | 50.04105 | 8.56986 | 369 ft | 129 kts | 250° |
| 2026-04-16 13:18 | 50.03834 | 8.55857 | 358 ft | 93 kts | 250° |
| 2026-04-16 13:18 | 50.03651 | 8.55085 | 350 ft | 63 kts | 249° |
| 2026-04-16 13:19 | 50.03523 | 8.54550 | 352 ft | 30 kts | 250° |
| 2026-04-16 13:19 | 50.03529 | 8.54297 | 346 ft | 21 kts | 285° |
| 2026-04-16 13:19 | 50.03615 | 8.54169 | 350 ft | 12 kts | 298° |
| 2026-04-16 13:19 | 50.03592 | 8.54042 | 348 ft | 13 kts | 249° |
| 2026-04-16 13:20 | 50.03561 | 8.53912 | 349 ft | 13 kts | 249° |
| 2026-04-16 13:20 | 50.03530 | 8.53781 | 350 ft | 13 kts | 250° |
| 2026-04-16 13:20 | 50.03497 | 8.53646 | 349 ft | 13 kts | 250° |
| 2026-04-16 13:20 | 50.03470 | 8.53509 | 349 ft | 13 kts | 274° |
| 2026-04-16 13:21 | 50.03540 | 8.53498 | 349 ft | 6 kts | 25° |
| 2026-04-16 13:21 | 50.03549 | 8.53506 | 352 ft | 0 kts | 26° |
| 2026-04-16 13:22 | 50.03581 | 8.53531 | 346 ft | 12 kts | 27° |
| 2026-04-16 13:22 | 50.03683 | 8.53566 | 352 ft | 16 kts | 351° |
| 2026-04-16 13:22 | 50.03757 | 8.53531 | 353 ft | 10 kts | 339° |
| 2026-04-16 13:23 | 50.03802 | 8.53505 | 353 ft | 4 kts | 339° |
| 2026-04-16 13:23 | 50.03812 | 8.53499 | 352 ft | 0 kts | 340° |